Time;durP1;ratioP1;P1;durP2;ratioP2;P2;SDS_P1;SDS_P2;PMS_P1;PMS_P2;Temp;Humidity;BMP_temperature;BMP_pressure;BME280_temperature;BME280_humidity;BME280_pressure;Samples;Min_cycle;Max_cycle;Signal;HPM_P1;HPM_P2
2023/09/29 00:00:16;;;;;;;4.40;3.37;;;;;;;21.16;75.75;99800.25;5094394;28;20253;-67
2023/09/29 00:02:44;;;;;;;6.20;3.47;;;;;;;21.12;75.55;99810.75;5093885;28;20647;-67
2023/09/29 00:05:15;;;;;;;5.87;3.53;;;;;;;21.19;75.43;99803.22;5093953;28;20253;-67
2023/09/29 00:07:42;;;;;;;6.20;3.50;;;;;;;21.20;75.12;99813.00;5094089;28;20216;-66
2023/09/29 00:10:11;;;;;;;4.27;3.77;;;;;;;21.16;74.97;99805.63;5093807;28;20313;-66
2023/09/29 00:12:40;;;;;;;6.87;3.57;;;;;;;21.21;74.57;99803.81;5093655;28;20951;-67
2023/09/29 00:15:08;;;;;;;5.00;3.97;;;;;;;21.25;74.59;99810.31;5094304;28;20218;-67
2023/09/29 00:17:34;;;;;;;4.17;3.77;;;;;;;21.22;74.75;99804.59;5093897;28;20188;-67
2023/09/29 00:20:02;;;;;;;3.83;3.53;;;;;;;21.13;74.77;99806.97;5094069;28;20191;-67
2023/09/29 00:22:30;;;;;;;4.53;3.97;;;;;;;21.19;74.99;99808.63;5094036;28;20238;-67
2023/09/29 00:24:57;;;;;;;4.20;3.80;;;;;;;21.13;74.94;99798.88;5093561;28;20655;-67
2023/09/29 00:27:23;;;;;;;4.13;3.83;;;;;;;21.13;75.09;99801.56;5093752;28;20191;-66
2023/09/29 00:29:51;;;;;;;4.80;3.73;;;;;;;21.04;75.35;99795.00;5093795;28;20245;-67
2023/09/29 00:32:19;;;;;;;3.97;3.60;;;;;;;21.12;75.11;99801.81;5093629;28;20198;-67
2023/09/29 00:34:46;;;;;;;5.23;3.50;;;;;;;21.13;74.98;99800.75;5093376;28;20655;-67
2023/09/29 00:37:12;;;;;;;4.03;3.73;;;;;;;21.18;74.82;99792.69;5093339;28;20555;-67
2023/09/29 00:39:40;;;;;;;6.50;3.70;;;;;;;21.08;75.36;99793.44;5093279;28;20712;-67
2023/09/29 00:42:07;;;;;;;4.47;4.10;;;;;;;21.08;75.42;99792.59;5093691;28;20295;-66
2023/09/29 00:44:34;;;;;;;4.90;3.97;;;;;;;21.09;75.53;99796.94;5093495;28;20248;-67
2023/09/29 00:47:02;;;;;;;4.13;3.83;;;;;;;21.05;75.70;99793.94;5093090;28;20613;-67
2023/09/29 00:49:30;;;;;;;5.03;3.70;;;;;;;20.89;76.60;99794.81;5093419;28;20191;-68
2023/09/29 00:51:59;;;;;;;5.67;4.27;;;;;;;20.84;77.04;99791.25;5092840;28;20250;-68
2023/09/29 00:54:27;;;;;;;4.70;4.30;;;;;;;20.83;77.44;99789.63;5093308;28;20195;-68
2023/09/29 00:56:56;;;;;;;6.73;4.63;;;;;;;20.72;77.89;99788.72;5093183;28;20260;-68
2023/09/29 00:59:24;;;;;;;6.43;4.80;;;;;;;20.73;78.05;99784.09;5093247;28;20203;-68
2023/09/29 01:01:51;;;;;;;6.97;5.10;;;;;;;20.73;78.17;99784.94;5092989;28;20249;-66
2023/09/29 01:04:18;;;;;;;5.37;4.80;;;;;;;20.72;77.97;99786.00;5093128;28;20195;-66
2023/09/29 01:06:45;;;;;;;5.87;4.43;;;;;;;20.67;78.48;99780.56;5092296;28;20564;-67
2023/09/29 01:09:12;;;;;;;4.30;3.97;;;;;;;20.63;78.61;99780.25;5076940;28;20223;-67
2023/09/29 01:11:43;;;;;;;7.10;4.60;;;;;;;20.65;78.41;99790.78;5072315;28;20224;-67
2023/09/29 01:14:12;;;;;;;5.67;4.33;;;;;;;20.63;78.17;99784.00;5072356;28;20602;-67
2023/09/29 01:16:39;;;;;;;5.73;4.37;;;;;;;20.61;78.11;99783.47;5072827;28;20280;-67
2023/09/29 01:19:11;;;;;;;5.07;4.57;;;;;;;20.56;78.37;99781.50;5072176;28;20188;-67
2023/09/29 01:21:38;;;;;;;5.30;4.90;;;;;;;20.57;78.10;99777.75;5072271;28;20219;-67
2023/09/29 01:24:07;;;;;;;6.10;4.50;;;;;;;20.54;78.06;99783.63;5072408;28;20192;-67
2023/09/29 01:26:34;;;;;;;6.70;4.27;;;;;;;20.51;78.09;99782.25;5072402;28;20198;-67
2023/09/29 01:29:01;;;;;;;5.17;4.47;;;;;;;20.54;78.07;99778.25;5072360;28;20257;-68
2023/09/29 01:31:27;;;;;;;6.63;4.80;;;;;;;20.51;78.00;99773.38;5072314;28;20224;-67
2023/09/29 01:33:54;;;;;;;5.43;4.50;;;;;;;20.54;78.23;99776.38;5072318;28;20192;-67
2023/09/29 01:36:21;;;;;;;5.33;4.77;;;;;;;20.54;78.21;99775.53;5072353;28;20594;-67
2023/09/29 01:38:49;;;;;;;9.87;4.37;;;;;;;20.53;78.14;99779.31;5072128;28;20189;-67
2023/09/29 01:41:17;;;;;;;6.20;4.90;;;;;;;20.57;78.00;99777.75;5072392;28;20293;-68
2023/09/29 01:43:45;;;;;;;9.27;4.70;;;;;;;20.56;78.26;99778.81;5072102;28;20246;-68
2023/09/29 01:46:15;;;;;;;5.20;4.70;;;;;;;20.55;78.20;99782.59;5071855;28;20575;-67
2023/09/29 01:48:41;;;;;;;5.30;4.57;;;;;;;20.54;78.18;99780.94;5080252;28;20203;-67
2023/09/29 01:51:08;;;;;;;5.67;4.50;;;;;;;20.38;78.58;99776.47;5091939;28;20702;-67
2023/09/29 01:53:35;;;;;;;5.17;4.03;;;;;;;20.37;78.21;99781.03;5092167;28;20260;-67
2023/09/29 01:56:02;;;;;;;4.90;4.50;;;;;;;20.29;78.36;99778.78;5092432;28;20193;-67
2023/09/29 01:58:31;;;;;;;4.30;3.90;;;;;;;20.29;78.20;99786.03;5091892;28;20655;-67
2023/09/29 02:00:58;;;;;;;5.30;4.47;;;;;;;20.24;78.37;99777.91;5091831;28;20230;-67
2023/09/29 02:03:25;;;;;;;5.47;4.47;;;;;;;20.21;78.44;99776.53;5092104;28;20229;-68
2023/09/29 02:05:52;;;;;;;8.80;4.50;;;;;;;20.12;78.76;99772.63;5092111;28;20199;-67
2023/09/29 02:08:19;;;;;;;4.70;4.30;;;;;;;20.02;79.24;99777.84;5091962;28;20252;-67
2023/09/29 02:10:49;;;;;;;4.80;4.40;;;;;;;19.97;79.47;99769.69;5080033;28;20277;-67
2023/09/29 02:13:17;;;;;;;8.23;4.40;;;;;;;20.00;79.66;99781.88;5071445;28;20651;-67
2023/09/29 02:15:45;;;;;;;5.63;3.83;;;;;;;20.02;79.36;99777.06;5071834;28;20196;-67
2023/09/29 02:18:12;;;;;;;6.90;4.03;;;;;;;19.98;79.45;99776.72;5087031;28;20203;-67
2023/09/29 02:20:46;;;;;;;7.73;4.00;;;;;;;19.92;79.49;99776.91;5091957;28;20229;-67
2023/09/29 02:23:13;;;;;;;5.40;4.20;;;;;;;19.87;79.97;99776.84;5092068;28;20209;-68
2023/09/29 02:25:42;;;;;;;5.03;4.50;;;;;;;19.87;80.01;99769.59;5091713;28;20210;-68
2023/09/29 02:28:10;;;;;;;6.03;4.57;;;;;;;19.89;79.86;99778.22;5091984;28;20220;-67
2023/09/29 02:30:38;;;;;;;4.97;4.57;;;;;;;19.85;80.34;99771.69;5074804;28;20318;-68
2023/09/29 02:33:06;;;;;;;4.73;4.03;;;;;;;19.68;80.88;99772.78;5091858;28;20198;-68
2023/09/29 02:35:33;;;;;;;4.60;4.20;;;;;;;19.74;80.63;99774.50;5091845;28;20187;-68
2023/09/29 02:38:00;;;;;;;6.03;4.33;;;;;;;19.70;80.76;99768.81;5091743;28;20277;-67
2023/09/29 02:40:28;;;;;;;9.97;4.67;;;;;;;19.73;80.70;99779.06;5091488;28;20210;-67
2023/09/29 02:42:55;;;;;;;7.93;4.53;;;;;;;19.72;81.20;99782.00;5092003;28;20250;-67
2023/09/29 02:45:23;;;;;;;4.97;4.50;;;;;;;19.78;80.97;99787.25;5091796;28;20195;-67
2023/09/29 02:47:49;;;;;;;6.27;4.17;;;;;;;19.85;80.85;99784.38;5091296;28;20616;-67
2023/09/29 02:50:18;;;;;;;8.03;5.57;;;;;;;19.84;80.75;99780.03;5091694;28;20192;-67
2023/09/29 02:52:45;;;;;;;14.77;5.47;;;;;;;19.81;81.03;99783.25;5091911;28;20219;-67
2023/09/29 02:55:12;;;;;;;8.00;5.23;;;;;;;19.77;81.08;99782.09;5091307;28;20191;-67
2023/09/29 02:57:40;;;;;;;10.67;5.50;;;;;;;19.72;81.56;99777.44;5091325;28;20685;-67
2023/09/29 03:00:15;;;;;;;8.20;5.07;;;;;;;19.75;81.33;99778.84;5091596;28;20195;-67
2023/09/29 03:02:42;;;;;;;5.67;5.00;;;;;;;19.70;81.67;99778.75;5071533;28;20195;-67
2023/09/29 03:05:09;;;;;;;8.67;5.40;;;;;;;19.69;81.78;99783.31;5071219;28;20192;-69
2023/09/29 03:07:37;;;;;;;9.73;5.53;;;;;;;19.67;81.73;99781.94;5073635;28;20196;-67
2023/09/29 03:10:07;;;;;;;7.40;4.97;;;;;;;19.70;81.72;99773.38;5089037;28;20284;-68
2023/09/29 03:12:36;;;;;;;5.80;5.13;;;;;;;19.73;81.52;99783.66;5071259;28;20221;-67
2023/09/29 03:15:03;;;;;;;7.90;4.93;;;;;;;19.71;81.48;99778.53;5071409;28;20279;-65
2023/09/29 03:17:31;;;;;;;4.87;4.20;;;;;;;19.72;81.19;99782.00;5071307;28;20188;-66
2023/09/29 03:19:58;;;;;;;5.60;4.60;;;;;;;19.74;81.20;99780.72;5071427;28;20588;-66
2023/09/29 03:22:25;;;;;;;9.27;4.97;;;;;;;19.72;81.11;99776.63;5071323;28;20235;-66
2023/09/29 03:24:53;;;;;;;8.37;4.80;;;;;;;19.69;81.36;99777.13;5082297;28;20199;-66
2023/09/29 03:27:20;;;;;;;8.67;4.53;;;;;;;19.62;81.41;99777.31;5091448;28;20191;-69
2023/09/29 03:29:46;;;;;;;5.30;4.83;;;;;;;19.67;81.30;99773.84;5094482;28;20280;-69
2023/09/29 03:32:13;;;;;;;9.80;3.60;;;;;;;19.70;80.97;99773.38;5094812;28;20215;-69
2023/09/29 03:34:41;;;;;;;6.43;4.83;;;;;;;19.76;81.00;99775.06;5095091;28;20250;-67
2023/09/29 03:37:08;;;;;;;6.33;4.40;;;;;;;19.89;80.24;99772.03;5095334;28;20195;-67
2023/09/29 03:39:34;;;;;;;8.07;4.80;;;;;;;20.08;80.88;99770.66;5094720;28;20191;-66
2023/09/29 03:42:03;;;;;;;8.13;4.43;;;;;;;20.30;78.67;99776.91;5094776;28;20763;-66
2023/09/29 03:44:30;;;;;;;12.30;4.53;;;;;;;20.32;78.02;99769.38;5094449;28;20296;-65
2023/09/29 03:46:56;;;;;;;10.10;4.33;;;;;;;20.26;78.04;99779.28;5095036;28;20224;-66
2023/09/29 03:49:23;;;;;;;8.53;4.87;;;;;;;20.26;78.28;99778.47;5094672;28;20191;-66
2023/09/29 03:51:51;;;;;;;8.47;4.67;;;;;;;20.24;78.37;99777.91;5094561;28;20279;-69
2023/09/29 03:54:18;;;;;;;12.27;4.57;;;;;;;20.29;78.37;99777.94;5094201;28;20276;-69
2023/09/29 03:56:45;;;;;;;6.33;4.57;;;;;;;20.40;77.40;99783.25;5094291;28;20278;-70
2023/09/29 03:59:13;;;;;;;6.13;4.83;;;;;;;20.48;77.38;99779.25;5094134;28;20280;-69
2023/09/29 04:01:40;;;;;;;5.30;4.40;;;;;;;20.44;77.08;99775.44;5094426;28;20244;-69
2023/09/29 04:04:07;;;;;;;8.47;4.50;;;;;;;20.43;77.09;99768.41;5094465;28;20259;-69
2023/09/29 04:06:34;;;;;;;7.47;5.00;;;;;;;20.44;77.03;99767.34;5094352;28;20191;-70
2023/09/29 04:09:00;;;;;;;6.10;4.60;;;;;;;20.43;77.33;99765.72;5079512;28;20196;-68
2023/09/29 04:11:27;;;;;;;8.90;4.97;;;;;;;20.37;77.24;99766.72;5073493;28;20277;-70
2023/09/29 04:13:54;;;;;;;11.03;5.80;;;;;;;20.36;77.55;99767.78;5073897;28;20275;-69
2023/09/29 04:16:22;;;;;;;9.57;4.70;;;;;;;20.21;77.82;99764.91;5074077;28;20200;-69
2023/09/29 04:18:49;;;;;;;8.33;5.07;;;;;;;20.20;77.91;99757.88;5092999;28;20663;-67
2023/09/29 04:21:15;;;;;;;10.30;4.93;;;;;;;20.10;78.08;99758.56;5093132;28;20275;-68
2023/09/29 04:23:42;;;;;;;7.00;4.70;;;;;;;19.94;78.67;99759.41;5093861;28;20276;-68
2023/09/29 04:26:16;;;;;;;5.20;4.67;;;;;;;19.85;79.49;99760.91;5093466;28;20195;-70
2023/09/29 04:28:43;;;;;;;11.10;4.90;;;;;;;19.87;79.59;99757.97;5093467;28;20195;-71
2023/09/29 04:31:10;;;;;;;9.97;5.30;;;;;;;19.91;78.66;99764.50;5093745;28;20187;-71
2023/09/29 04:33:38;;;;;;;7.33;5.13;;;;;;;19.80;78.84;99760.84;5093448;28;20569;-71
2023/09/29 04:36:06;;;;;;;11.87;5.90;;;;;;;19.84;79.06;99764.69;5093824;28;20620;-71
2023/09/29 04:38:32;;;;;;;17.30;5.47;;;;;;;19.85;78.52;99768.19;5091421;28;20615;-71
2023/09/29 04:40:59;;;;;;;7.33;5.23;;;;;;;19.87;78.50;99771.44;5074924;28;20657;-70
2023/09/29 04:43:28;;;;;;;8.83;6.07;;;;;;;19.83;78.44;99763.06;5073195;28;20195;-71
2023/09/29 04:45:55;;;;;;;18.20;5.97;;;;;;;19.85;78.10;99765.50;5079368;28;20192;-71
2023/09/29 04:48:21;;;;;;;21.83;5.43;;;;;;;19.83;78.20;99763.06;5093197;28;20259;-70
2023/09/29 04:50:49;;;;;;;10.77;5.27;;;;;;;19.88;77.71;99773.06;5092879;28;20195;-69
2023/09/29 04:53:16;;;;;;;12.63;5.43;;;;;;;20.02;77.57;99766.28;5093286;28;20248;-69
2023/09/29 04:55:43;;;;;;;13.43;5.20;;;;;;;20.26;76.19;99775.78;5093103;28;20218;-70
2023/09/29 04:58:10;;;;;;;10.63;5.20;;;;;;;20.48;75.25;99772.00;5093264;28;20203;-69
2023/09/29 05:00:37;;;;;;;12.17;5.50;;;;;;;20.80;74.99;99782.84;5093070;28;20199;-69
2023/09/29 05:03:04;;;;;;;11.63;5.27;;;;;;;20.99;72.54;99791.44;5092809;28;20690;-68
2023/09/29 05:05:31;;;;;;;8.93;5.27;;;;;;;21.03;72.22;99785.25;5093048;28;20553;-69
2023/09/29 05:07:59;;;;;;;12.07;5.70;;;;;;;21.20;71.25;99791.38;5087178;28;20242;-71
2023/09/29 05:10:26;;;;;;;8.20;4.27;;;;;;;21.31;70.93;99782.25;5072712;28;20265;-70
2023/09/29 05:12:52;;;;;;;10.27;4.57;;;;;;;21.52;70.18;99794.06;5078240;28;20227;-69
2023/09/29 05:15:19;;;;;;;21.80;5.20;;;;;;;21.80;68.78;99799.16;5072294;28;20690;-70
2023/09/29 05:17:46;;;;;;;12.10;5.20;;;;;;;22.10;69.36;99796.59;5072529;28;20242;-68
2023/09/29 05:20:14;;;;;;;18.83;5.10;;;;;;;22.37;66.14;99802.69;5082323;28;20240;-68
2023/09/29 05:22:40;;;;;;;13.80;5.33;;;;;;;22.56;66.66;99793.84;5072862;28;20207;-69
2023/09/29 05:25:09;;;;;;;7.57;4.63;;;;;;;22.64;64.04;99806.88;5092217;28;20245;-70
2023/09/29 05:27:36;;;;;;;8.73;4.40;;;;;;;22.79;63.95;99806.91;5091956;28;20192;-69
2023/09/29 05:30:03;;;;;;;6.03;4.37;;;;;;;22.90;63.10;99808.56;5085203;28;20989;-70
2023/09/29 05:32:29;;;;;;;7.00;4.53;;;;;;;22.91;62.85;99804.75;5072760;28;20228;-69
2023/09/29 05:34:56;;;;;;;8.57;4.93;;;;;;;22.94;62.43;99803.41;5070611;28;20193;-70
2023/09/29 05:37:23;;;;;;;8.73;3.93;;;;;;;23.07;62.07;99803.69;5070548;28;20204;-69
2023/09/29 05:39:49;;;;;;;10.53;4.70;;;;;;;23.15;61.50;99799.66;5069961;28;20254;-68
2023/09/29 05:42:20;;;;;;;7.80;3.93;;;;;;;23.17;61.51;99803.72;5069346;28;20252;-70
2023/09/29 05:44:47;;;;;;;13.47;4.90;;;;;;;23.25;60.69;99811.34;5071836;28;20635;-69
2023/09/29 05:47:13;;;;;;;4.83;4.10;;;;;;;23.49;59.46;99819.75;5079154;28;20217;-71
2023/09/29 05:49:40;;;;;;;16.27;4.30;;;;;;;23.64;58.57;99814.31;5083281;28;20197;-69
2023/09/29 05:52:07;;;;;;;12.87;4.27;;;;;;;23.80;59.25;99819.44;5089325;28;20212;-69
2023/09/29 05:54:34;;;;;;;16.07;4.00;;;;;;;24.12;57.72;99819.94;5081195;28;20214;-70
2023/09/29 05:57:00;;;;;;;12.90;4.43;;;;;;;24.45;58.41;99819.28;5090042;28;20193;-73
2023/09/29 05:59:29;;;;;;;12.03;4.33;;;;;;;24.98;54.88;99837.50;5088850;28;20263;-68
2023/09/29 06:01:56;;;;;;;12.97;4.60;;;;;;;25.16;52.57;99832.50;5089339;28;20198;-68
2023/09/29 06:04:23;;;;;;;14.40;5.40;;;;;;;25.32;53.22;99831.34;5085776;28;20198;-69
2023/09/29 06:06:49;;;;;;;18.27;4.83;;;;;;;25.45;52.12;99830.69;5090285;28;20202;-70
2023/09/29 06:09:16;;;;;;;7.60;5.13;;;;;;;25.77;52.38;99833.66;5072551;28;20188;-68
2023/09/29 06:11:43;;;;;;;8.43;3.70;;;;;;;26.32;50.26;99836.66;5069910;28;20200;-69
2023/09/29 06:14:10;;;;;;;7.70;3.90;;;;;;;26.82;48.95;99835.22;5068167;28;20639;-70
2023/09/29 06:16:38;;;;;;;9.07;4.07;;;;;;;27.18;45.85;99830.88;5073603;28;20301;-68
2023/09/29 06:19:05;;;;;;;17.20;3.83;;;;;;;27.39;43.01;99824.00;5087388;28;20199;-69
2023/09/29 06:21:32;;;;;;;8.73;3.33;;;;;;;27.48;42.76;99822.25;5084474;28;20229;-68
2023/09/29 06:23:58;;;;;;;10.20;4.00;;;;;;;27.61;41.88;99822.25;5088884;28;20336;-68
2023/09/29 06:26:25;;;;;;;7.27;3.60;;;;;;;27.47;41.46;99820.59;5089216;28;20193;-70
2023/09/29 06:28:51;;;;;;;8.60;3.67;;;;;;;27.50;41.50;99814.56;5089162;28;20191;-69
2023/09/29 06:31:18;;;;;;;16.73;4.03;;;;;;;27.61;41.11;99813.28;5092569;28;20194;-68
2023/09/29 06:33:46;;;;;;;5.70;3.57;;;;;;;27.68;41.22;99821.91;5109035;28;20301;-69
2023/09/29 06:36:13;;;;;;;10.33;3.70;;;;;;;27.93;40.38;99808.63;5109846;28;20612;-67
2023/09/29 06:38:40;;;;;;;8.53;3.57;;;;;;;28.05;39.61;99808.13;5108128;28;20195;-68
2023/09/29 06:41:06;;;;;;;9.03;3.50;;;;;;;28.08;39.83;99811.06;5109791;28;20234;-68
2023/09/29 06:43:33;;;;;;;11.30;4.27;;;;;;;28.27;38.37;99811.78;5110054;28;20252;-66
2023/09/29 06:46:00;;;;;;;14.30;4.07;;;;;;;27.95;37.67;99811.03;5094672;28;20208;-68
2023/09/29 06:48:27;;;;;;;10.43;3.73;;;;;;;27.91;38.50;99815.50;5069150;28;20200;-68
2023/09/29 06:50:58;;;;;;;15.23;3.93;;;;;;;27.64;38.56;99809.97;5069929;28;20245;-68
2023/09/29 06:53:25;;;;;;;8.50;3.50;;;;;;;27.67;39.89;99814.81;5073107;28;20199;-68
2023/09/29 06:55:53;;;;;;;7.83;3.17;;;;;;;27.73;37.60;99813.63;5089915;28;20249;-73
2023/09/29 06:58:19;;;;;;;22.63;3.57;;;;;;;27.75;38.83;99816.84;5089654;28;20191;-69
2023/09/29 07:00:46;;;;;;;15.47;3.77;;;;;;;27.80;37.83;99827.66;5089554;28;20195;-70
2023/09/29 07:03:13;;;;;;;19.13;4.10;;;;;;;27.70;37.55;99820.50;5090154;28;20245;-71
2023/09/29 07:05:39;;;;;;;7.87;3.27;;;;;;;27.71;36.88;99822.09;5093090;28;20298;-68
2023/09/29 07:08:07;;;;;;;13.10;4.00;;;;;;;27.77;38.10;99820.09;5091845;28;20191;-67
2023/09/29 07:10:34;;;;;;;18.57;4.57;;;;;;;27.74;37.46;99820.69;5093821;28;20256;-69
2023/09/29 07:13:01;;;;;;;9.00;3.13;;;;;;;27.77;36.98;99820.88;5093323;28;20223;-68
2023/09/29 07:15:28;;;;;;;12.43;3.47;;;;;;;27.59;37.26;99818.22;5093630;28;20192;-68
2023/09/29 07:17:54;;;;;;;10.27;3.53;;;;;;;27.77;37.73;99814.63;5093390;28;20196;-67
2023/09/29 07:20:22;;;;;;;18.63;3.80;;;;;;;28.08;35.97;99815.72;5093348;28;20679;-68
2023/09/29 07:22:50;;;;;;;8.63;3.80;;;;;;;28.28;35.54;99820.78;5084657;28;20206;-68
2023/09/29 07:25:18;;;;;;;8.37;3.60;;;;;;;28.35;35.97;99816.53;5080067;28;20199;-68
2023/09/29 07:27:45;;;;;;;12.90;3.50;;;;;;;28.43;37.15;99813.09;5087791;28;20246;-65
2023/09/29 07:30:12;;;;;;;23.33;3.57;;;;;;;28.35;34.30;99815.72;5081014;28;20187;-65
2023/09/29 07:32:40;;;;;;;8.50;3.23;;;;;;;28.13;33.97;99818.38;5086604;28;20648;-67
2023/09/29 07:35:08;;;;;;;25.30;4.00;;;;;;;27.88;34.73;99818.81;5086238;28;20253;-66
2023/09/29 07:37:35;;;;;;;10.70;3.30;;;;;;;27.67;35.49;99814.81;5092607;28;20291;-67
2023/09/29 07:40:01;;;;;;;15.90;3.57;;;;;;;27.63;35.29;99814.59;5089090;28;20195;-67
2023/09/29 07:42:29;;;;;;;10.00;3.67;;;;;;;27.57;35.37;99815.78;5083599;28;20223;-68
2023/09/29 07:44:57;;;;;;;14.00;3.73;;;;;;;27.59;35.78;99815.47;5089907;28;20667;-66
2023/09/29 07:47:24;;;;;;;6.63;3.50;;;;;;;27.74;35.89;99810.59;5092709;28;20187;-67
2023/09/29 07:49:50;;;;;;;10.17;4.27;;;;;;;27.88;35.00;99816.09;5089581;28;20199;-68
2023/09/29 07:52:17;;;;;;;13.60;3.70;;;;;;;27.90;34.04;99824.81;5092148;28;20607;-68
2023/09/29 07:54:44;;;;;;;9.37;3.10;;;;;;;27.93;33.42;99813.28;5090863;28;20195;-65
2023/09/29 07:57:10;;;;;;;15.53;4.20;;;;;;;28.31;33.34;99810.06;5086814;28;20199;-67
2023/09/29 07:59:38;;;;;;;19.10;3.70;;;;;;;28.66;33.50;99816.72;5086157;28;20603;-66
2023/09/29 08:02:05;;;;;;;12.90;3.30;;;;;;;29.08;32.91;99806.22;5091585;28;20195;-67
2023/09/29 08:04:32;;;;;;;14.30;3.23;;;;;;;29.23;31.75;99817.94;5091912;28;20296;-65
2023/09/29 08:06:59;;;;;;;22.17;3.97;;;;;;;29.14;31.51;99806.91;5091624;28;20200;-67
2023/09/29 08:09:25;;;;;;;9.57;3.10;;;;;;;29.15;32.65;99814.81;5091826;28;20215;-65
2023/09/29 08:11:52;;;;;;;10.97;3.47;;;;;;;29.34;30.92;99817.38;5092839;28;20617;-64
2023/09/29 08:14:19;;;;;;;8.87;3.10;;;;;;;29.36;30.84;99815.16;5091387;28;20211;-64
2023/09/29 08:16:47;;;;;;;8.93;3.47;;;;;;;29.33;31.87;99813.81;5090303;28;20191;-66
2023/09/29 08:19:13;;;;;;;13.60;3.60;;;;;;;29.19;32.33;99815.81;5092558;28;20237;-64
2023/09/29 08:21:40;;;;;;;9.67;3.37;;;;;;;29.40;31.69;99809.84;5091139;28;20196;-63
2023/09/29 08:24:08;;;;;;;15.47;3.23;;;;;;;29.56;31.31;99808.34;5091751;28;20252;-64
2023/09/29 08:26:35;;;;;;;6.00;3.20;;;;;;;29.82;31.13;99810.16;5092210;28;20195;-63
2023/09/29 08:29:03;;;;;;;6.73;2.80;;;;;;;30.16;29.82;99812.25;5091272;28;20183;-65
2023/09/29 08:31:29;;;;;;;16.33;3.63;;;;;;;30.24;30.22;99809.56;5084713;28;20192;-65
2023/09/29 08:33:57;;;;;;;7.20;3.37;;;;;;;30.20;29.48;99800.34;5079416;28;20215;-65
2023/09/29 08:36:24;;;;;;;11.53;3.80;;;;;;;30.20;29.83;99807.75;5091545;28;20355;-65
2023/09/29 08:38:51;;;;;;;12.90;3.33;;;;;;;30.16;29.80;99807.59;5089404;28;20252;-65
2023/09/29 08:41:18;;;;;;;15.93;3.40;;;;;;;30.05;29.11;99810.91;5091586;28;20227;-64
2023/09/29 08:43:46;;;;;;;9.50;3.27;;;;;;;29.76;29.60;99802.38;5091396;28;20206;-64
2023/09/29 08:46:15;;;;;;;13.83;3.63;;;;;;;29.79;30.13;99804.47;5090586;28;20253;-65
2023/09/29 08:48:44;;;;;;;14.80;3.50;;;;;;;30.02;29.90;99801.38;5072592;28;20200;-65
2023/09/29 08:51:15;;;;;;;8.70;2.80;;;;;;;29.90;29.16;99814.03;5069640;28;20248;-65
2023/09/29 08:53:42;;;;;;;9.50;3.23;;;;;;;29.67;28.98;99805.06;5083762;28;20207;-65
2023/09/29 08:56:12;;;;;;;16.30;3.17;;;;;;;29.62;28.89;99804.38;5087644;28;20249;-66
2023/09/29 08:58:39;;;;;;;8.57;3.10;;;;;;;29.73;29.71;99809.28;5079954;28;20196;-65
2023/09/29 09:01:06;;;;;;;7.17;3.07;;;;;;;29.64;28.90;99811.16;5090514;28;20659;-65
2023/09/29 09:03:32;;;;;;;11.37;3.37;;;;;;;29.32;28.95;99803.19;5090465;28;20195;-65
2023/09/29 09:05:59;;;;;;;6.87;3.40;;;;;;;29.23;29.65;99805.03;5090118;28;20191;-65
2023/09/29 09:08:27;;;;;;;10.73;3.40;;;;;;;29.48;29.27;99809.09;5080660;28;20188;-65
2023/09/29 09:10:58;;;;;;;10.00;3.13;;;;;;;29.53;28.27;99815.25;5085714;28;20231;-65
2023/09/29 09:13:26;;;;;;;15.07;5.97;;;;;;;29.61;28.16;99805.50;5090132;28;20214;-65
2023/09/29 09:15:57;;;;;;;8.87;3.13;;;;;;;29.72;28.20;99810.41;5091581;28;20216;-64
2023/09/29 09:18:27;;;;;;;12.43;3.60;;;;;;;30.04;31.32;99799.13;5090115;28;20298;-65
2023/09/29 09:20:54;;;;;;;11.23;2.80;;;;;;;30.23;26.52;99807.94;5093871;28;20286;-65
2023/09/29 09:23:21;;;;;;;7.60;3.37;;;;;;;30.37;27.27;99813.31;5079632;28;20585;-65
2023/09/29 09:25:49;;;;;;;11.90;3.13;;;;;;;30.52;28.47;99808.19;5089697;28;20195;-65
2023/09/29 09:28:16;;;;;;;8.20;3.90;;;;;;;30.72;26.55;99812.28;5088504;28;20663;-66
2023/09/29 09:30:44;;;;;;;11.60;3.40;;;;;;;30.72;25.61;99813.09;5090103;28;20248;-65
2023/09/29 09:33:18;;;;;;;10.27;4.50;;;;;;;30.99;26.74;99806.50;5088141;28;20220;-65
2023/09/29 09:35:45;;;;;;;6.17;3.70;;;;;;;31.29;28.25;99803.63;5089062;28;20286;-64
2023/09/29 09:38:12;;;;;;;8.90;3.27;;;;;;;31.57;26.63;99804.88;5070430;28;20204;-64
2023/09/29 09:40:38;;;;;;;9.93;3.53;;;;;;;31.78;24.99;99805.84;5084042;28;20248;-64
2023/09/29 09:43:08;;;;;;;7.43;3.40;;;;;;;31.76;24.48;99802.59;5069865;28;20192;-64
2023/09/29 09:45:39;;;;;;;12.63;3.60;;;;;;;31.80;24.62;99798.06;5084190;28;20198;-63
2023/09/29 09:48:07;;;;;;;8.97;3.40;;;;;;;31.93;22.83;99802.53;5077879;28;20202;-64
2023/09/29 09:50:36;;;;;;;9.33;4.00;;;;;;;32.11;22.30;99795.84;5080214;28;20196;-63
2023/09/29 09:53:05;;;;;;;9.30;3.70;;;;;;;32.14;22.78;99797.91;5077134;28;20219;-64
2023/09/29 09:55:39;;;;;;;10.77;3.57;;;;;;;32.08;22.72;99799.25;5077858;28;20204;-63
2023/09/29 09:58:09;;;;;;;9.57;3.90;;;;;;;32.29;22.54;99789.16;5084842;28;20298;-64
2023/09/29 10:00:37;;;;;;;8.63;3.80;;;;;;;32.38;22.72;99800.91;5079942;28;20204;-63
2023/09/29 10:03:11;;;;;;;5.30;3.83;;;;;;;32.45;21.30;99798.44;5082341;28;20199;-64
2023/09/29 10:05:40;;;;;;;8.00;3.57;;;;;;;32.53;21.21;99805.84;5078247;28;20194;-64
2023/09/29 10:08:09;;;;;;;7.93;3.97;;;;;;;32.62;21.50;99798.34;5070146;28;20283;-63
2023/09/29 10:10:38;;;;;;;6.23;3.90;;;;;;;32.62;21.80;99792.84;5086368;28;20195;-65
2023/09/29 10:13:11;;;;;;;10.43;3.77;;;;;;;32.42;20.53;99790.84;5089995;28;20219;-64
2023/09/29 10:15:37;;;;;;;10.57;3.83;;;;;;;32.37;21.15;99782.81;5089934;28;20203;-64
2023/09/29 10:18:14;;;;;;;8.53;3.87;;;;;;;32.03;21.24;99785.69;5090234;28;20196;-62
2023/09/29 10:20:41;;;;;;;9.87;3.53;;;;;;;32.07;21.38;99778.41;5090423;28;20190;-62
2023/09/29 10:23:13;;;;;;;6.43;4.10;;;;;;;32.06;20.64;99776.75;5090106;28;20213;-62
2023/09/29 10:25:42;;;;;;;12.63;5.10;;;;;;;32.10;21.18;99768.69;5090160;28;20229;-61
2023/09/29 10:28:12;;;;;;;10.10;3.80;;;;;;;32.31;20.81;99778.63;5090393;28;20260;-61
2023/09/29 10:30:40;;;;;;;10.90;4.77;;;;;;;32.37;20.75;99769.03;5089475;28;20191;-62
2023/09/29 10:33:11;;;;;;;7.53;3.60;;;;;;;32.41;20.47;99761.75;5091104;28;20223;-61
2023/09/29 10:35:44;;;;;;;5.10;3.87;;;;;;;32.51;22.24;99753.09;5089793;28;20194;-62
2023/09/29 10:38:12;;;;;;;6.40;3.63;;;;;;;32.66;19.37;99755.25;5089972;28;20189;-62
2023/09/29 10:40:41;;;;;;;6.43;3.60;;;;;;;32.64;20.56;99745.72;5092833;28;20226;-62
2023/09/29 10:43:08;;;;;;;28.17;4.90;;;;;;;32.60;19.41;99740.09;5094261;28;20214;-61
2023/09/29 10:45:36;;;;;;;4.87;3.03;;;;;;;32.64;19.29;99741.03;5093513;28;20214;-60
2023/09/29 10:48:07;;;;;;;6.85;3.90;;;;;;;32.84;18.83;99740.28;5093481;28;20199;-61
2023/09/29 10:50:45;;;;;;;8.05;3.50;;;;;;;33.12;19.85;99738.53;5093214;28;20183;-63
2023/09/29 10:53:12;;;;;;;5.43;3.30;;;;;;;33.19;18.89;99733.28;5092406;28;20242;-62
2023/09/29 10:55:46;;;;;;;12.05;3.83;;;;;;;33.08;20.09;99734.84;5091652;28;20630;-61
2023/09/29 10:58:15;;;;;;;12.00;4.47;;;;;;;32.52;20.08;99727.22;5093958;28;20179;-61
2023/09/29 11:00:46;;;;;;;9.47;3.40;;;;;;;32.36;19.67;99730.88;5094743;28;20249;-61
2023/09/29 11:03:14;;;;;;;4.50;3.27;;;;;;;32.29;21.32;99725.91;5095129;28;20184;-61
2023/09/29 11:05:49;;;;;;;10.87;3.60;;;;;;;32.11;19.29;99732.63;5094627;28;20613;-61
2023/09/29 11:08:19;;;;;;;7.60;3.20;;;;;;;32.13;19.99;99722.06;5094472;28;20662;-61
2023/09/29 11:10:55;;;;;;;13.30;4.07;;;;;;;32.11;20.78;99727.13;5094196;28;20180;-60
2023/09/29 11:13:21;;;;;;;14.80;4.27;;;;;;;32.02;21.08;99722.78;5094436;28;20203;-61
2023/09/29 11:15:50;;;;;;;6.53;3.23;;;;;;;31.96;20.73;99719.44;5092683;28;20721;-61
2023/09/29 11:18:26;;;;;;;6.13;3.40;;;;;;;31.96;21.43;99716.69;5086159;28;20535;-61
2023/09/29 11:20:53;;;;;;;5.30;3.40;;;;;;;31.97;21.16;99715.53;5090723;28;20236;-62
2023/09/29 11:23:20;;;;;;;10.60;3.60;;;;;;;31.92;20.50;99714.91;5078031;28;20274;-63
2023/09/29 11:25:48;;;;;;;5.87;3.43;;;;;;;31.84;19.56;99711.06;5080041;28;20609;-63
2023/09/29 11:28:15;;;;;;;10.93;3.07;;;;;;;31.81;19.31;99710.94;5081617;28;20191;-62
2023/09/29 11:30:42;;;;;;;7.13;3.97;;;;;;;31.63;20.76;99707.41;5079799;28;20191;-62
2023/09/29 11:33:12;;;;;;;6.00;3.50;;;;;;;31.44;19.66;99711.69;5084902;28;20282;-62